sensor_id;sensor_type;location;lat;lon;timestamp;temperature;humidity
38380;DHT22;38377;47.418;18.882;2022-07-23T00:00:30;22.00;99.90
38380;DHT22;38377;47.418;18.882;2022-07-23T00:02:55;22.00;99.90
38380;DHT22;38377;47.418;18.882;2022-07-23T00:05:21;22.00;99.90
38380;DHT22;38377;47.418;18.882;2022-07-23T00:07:47;22.00;99.90
38380;DHT22;38377;47.418;18.882;2022-07-23T00:10:13;22.00;99.90
38380;DHT22;38377;47.418;18.882;2022-07-23T00:12:39;22.00;99.90
38380;DHT22;38377;47.418;18.882;2022-07-23T00:15:09;22.00;99.90
38380;DHT22;38377;47.418;18.882;2022-07-23T00:17:35;22.00;99.90
38380;DHT22;38377;47.418;18.882;2022-07-23T00:20:01;21.90;99.90
38380;DHT22;38377;47.418;18.882;2022-07-23T00:22:27;22.00;99.90
38380;DHT22;38377;47.418;18.882;2022-07-23T00:24:55;22.00;99.90
38380;DHT22;38377;47.418;18.882;2022-07-23T00:27:20;22.00;99.90
38380;DHT22;38377;47.418;18.882;2022-07-23T00:29:46;22.00;99.90
38380;DHT22;38377;47.418;18.882;2022-07-23T00:32:12;21.90;99.90
38380;DHT22;38377;47.418;18.882;2022-07-23T00:34:37;21.90;99.90
38380;DHT22;38377;47.418;18.882;2022-07-23T00:37:03;21.80;99.90
38380;DHT22;38377;47.418;18.882;2022-07-23T00:39:29;21.80;99.90
38380;DHT22;38377;47.418;18.882;2022-07-23T00:41:55;21.70;99.90
38380;DHT22;38377;47.418;18.882;2022-07-23T00:44:26;21.70;99.90
38380;DHT22;38377;47.418;18.882;2022-07-23T00:46:54;21.80;99.90
38380;DHT22;38377;47.418;18.882;2022-07-23T00:49:21;21.70;99.90
38380;DHT22;38377;47.418;18.882;2022-07-23T00:51:49;21.70;99.90
38380;DHT22;38377;47.418;18.882;2022-07-23T00:54:15;21.60;99.90
38380;DHT22;38377;47.418;18.882;2022-07-23T00:56:43;21.60;99.90
38380;DHT22;38377;47.418;18.882;2022-07-23T00:59:09;21.60;99.90
38380;DHT22;38377;47.418;18.882;2022-07-23T01:01:35;21.40;99.90
38380;DHT22;38377;47.418;18.882;2022-07-23T01:04:01;21.40;99.90
38380;DHT22;38377;47.418;18.882;2022-07-23T01:06:27;21.40;99.90
38380;DHT22;38377;47.418;18.882;2022-07-23T01:08:54;21.50;99.90
38380;DHT22;38377;47.418;18.882;2022-07-23T01:11:22;21.50;99.90
38380;DHT22;38377;47.418;18.882;2022-07-23T01:13:48;21.40;99.90
38380;DHT22;38377;47.418;18.882;2022-07-23T01:16:14;21.40;99.90
38380;DHT22;38377;47.418;18.882;2022-07-23T01:18:40;21.30;99.90
38380;DHT22;38377;47.418;18.882;2022-07-23T01:21:06;21.30;99.90
38380;DHT22;38377;47.418;18.882;2022-07-23T01:23:32;21.20;99.90
38380;DHT22;38377;47.418;18.882;2022-07-23T01:25:57;21.10;99.90
38380;DHT22;38377;47.418;18.882;2022-07-23T01:28:23;21.10;99.90
38380;DHT22;38377;47.418;18.882;2022-07-23T01:30:49;21.10;99.90
38380;DHT22;38377;47.418;18.882;2022-07-23T01:33:15;21.00;99.90
38380;DHT22;38377;47.418;18.882;2022-07-23T01:35:41;20.90;99.90
38380;DHT22;38377;47.418;18.882;2022-07-23T01:38:07;20.90;99.90
38380;DHT22;38377;47.418;18.882;2022-07-23T01:40:32;20.90;99.90
38380;DHT22;38377;47.418;18.882;2022-07-23T01:42:58;20.90;99.90
38380;DHT22;38377;47.418;18.882;2022-07-23T01:45:24;20.90;99.90
38380;DHT22;38377;47.418;18.882;2022-07-23T01:47:50;20.90;99.90
38380;DHT22;38377;47.418;18.882;2022-07-23T01:50:15;20.90;99.90
38380;DHT22;38377;47.418;18.882;2022-07-23T01:52:41;20.90;99.90
38380;DHT22;38377;47.418;18.882;2022-07-23T01:55:07;20.90;99.90
38380;DHT22;38377;47.418;18.882;2022-07-23T01:57:33;20.80;99.90
38380;DHT22;38377;47.418;18.882;2022-07-23T01:59:59;20.90;99.90
38380;DHT22;38377;47.418;18.882;2022-07-23T02:02:25;20.70;99.90
38380;DHT22;38377;47.418;18.882;2022-07-23T02:04:51;20.60;99.90
38380;DHT22;38377;47.418;18.882;2022-07-23T02:07:17;20.60;99.90
38380;DHT22;38377;47.418;18.882;2022-07-23T02:09:43;20.60;99.90
38380;DHT22;38377;47.418;18.882;2022-07-23T02:12:08;20.60;99.90
38380;DHT22;38377;47.418;18.882;2022-07-23T02:14:34;20.70;99.90
38380;DHT22;38377;47.418;18.882;2022-07-23T02:17:00;20.60;99.90
38380;DHT22;38377;47.418;18.882;2022-07-23T02:19:25;20.60;99.90
38380;DHT22;38377;47.418;18.882;2022-07-23T02:21:51;20.60;99.90
38380;DHT22;38377;47.418;18.882;2022-07-23T02:24:17;20.60;99.90
38380;DHT22;38377;47.418;18.882;2022-07-23T02:26:43;20.60;99.90
38380;DHT22;38377;47.418;18.882;2022-07-23T02:29:09;20.60;99.90
38380;DHT22;38377;47.418;18.882;2022-07-23T02:31:35;20.60;99.90
38380;DHT22;38377;47.418;18.882;2022-07-23T02:34:01;20.50;99.90
38380;DHT22;38377;47.418;18.882;2022-07-23T02:36:27;20.50;99.90
38380;DHT22;38377;47.418;18.882;2022-07-23T02:38:53;20.50;99.90
38380;DHT22;38377;47.418;18.882;2022-07-23T02:41:19;20.50;99.90
38380;DHT22;38377;47.418;18.882;2022-07-23T02:43:44;20.40;99.90
38380;DHT22;38377;47.418;18.882;2022-07-23T02:46:10;20.30;99.90
38380;DHT22;38377;47.418;18.882;2022-07-23T02:48:36;20.30;99.90
38380;DHT22;38377;47.418;18.882;2022-07-23T02:51:02;20.30;99.90
38380;DHT22;38377;47.418;18.882;2022-07-23T02:53:27;20.40;99.90
38380;DHT22;38377;47.418;18.882;2022-07-23T02:55:53;20.40;99.90
38380;DHT22;38377;47.418;18.882;2022-07-23T02:58:19;20.40;99.90
38380;DHT22;38377;47.418;18.882;2022-07-23T03:00:44;20.50;99.90
38380;DHT22;38377;47.418;18.882;2022-07-23T03:03:10;20.40;99.90
38380;DHT22;38377;47.418;18.882;2022-07-23T03:05:36;20.40;99.90
38380;DHT22;38377;47.418;18.882;2022-07-23T03:08:02;20.50;99.90
38380;DHT22;38377;47.418;18.882;2022-07-23T03:10:28;20.40;99.90
38380;DHT22;38377;47.418;18.882;2022-07-23T03:12:54;20.30;99.90
38380;DHT22;38377;47.418;18.882;2022-07-23T03:15:19;20.30;99.90
38380;DHT22;38377;47.418;18.882;2022-07-23T03:17:45;20.30;99.90
38380;DHT22;38377;47.418;18.882;2022-07-23T03:20:11;20.40;99.90
38380;DHT22;38377;47.418;18.882;2022-07-23T03:22:36;20.40;99.90
38380;DHT22;38377;47.418;18.882;2022-07-23T03:25:02;20.30;99.90
38380;DHT22;38377;47.418;18.882;2022-07-23T03:27:29;20.40;99.90
38380;DHT22;38377;47.418;18.882;2022-07-23T03:29:57;20.30;99.90
38380;DHT22;38377;47.418;18.882;2022-07-23T03:32:24;20.40;99.90
38380;DHT22;38377;47.418;18.882;2022-07-23T03:34:50;20.40;99.90
38380;DHT22;38377;47.418;18.882;2022-07-23T03:37:17;20.50;99.90
38380;DHT22;38377;47.418;18.882;2022-07-23T03:39:43;20.50;99.90
38380;DHT22;38377;47.418;18.882;2022-07-23T03:42:09;20.60;99.90
38380;DHT22;38377;47.418;18.882;2022-07-23T03:44:35;20.70;99.90
38380;DHT22;38377;47.418;18.882;2022-07-23T03:47:05;20.80;99.90
38380;DHT22;38377;47.418;18.882;2022-07-23T03:49:32;20.80;99.90
38380;DHT22;38377;47.418;18.882;2022-07-23T03:51:58;20.90;99.90
38380;DHT22;38377;47.418;18.882;2022-07-23T03:54:24;21.00;99.90
38380;DHT22;38377;47.418;18.882;2022-07-23T03:56:50;21.10;99.90
38380;DHT22;38377;47.418;18.882;2022-07-23T03:59:16;21.20;99.90
38380;DHT22;38377;47.418;18.882;2022-07-23T04:01:41;21.30;99.90
38380;DHT22;38377;47.418;18.882;2022-07-23T04:04:07;21.30;99.90
38380;DHT22;38377;47.418;18.882;2022-07-23T04:06:34;21.40;99.90
38380;DHT22;38377;47.418;18.882;2022-07-23T04:09:00;21.40;99.90
38380;DHT22;38377;47.418;18.882;2022-07-23T04:11:26;21.50;99.90
38380;DHT22;38377;47.418;18.882;2022-07-23T04:13:53;21.60;99.90
38380;DHT22;38377;47.418;18.882;2022-07-23T04:16:19;21.80;99.90
38380;DHT22;38377;47.418;18.882;2022-07-23T04:18:44;21.70;99.90
38380;DHT22;38377;47.418;18.882;2022-07-23T04:21:10;21.80;99.90
38380;DHT22;38377;47.418;18.882;2022-07-23T04:23:36;21.70;99.90
38380;DHT22;38377;47.418;18.882;2022-07-23T04:26:01;21.70;99.90
38380;DHT22;38377;47.418;18.882;2022-07-23T04:28:27;21.80;99.90
38380;DHT22;38377;47.418;18.882;2022-07-23T04:30:58;21.90;99.90
38380;DHT22;38377;47.418;18.882;2022-07-23T04:33:24;22.10;99.90
38380;DHT22;38377;47.418;18.882;2022-07-23T04:35:50;22.40;99.90
38380;DHT22;38377;47.418;18.882;2022-07-23T04:38:16;22.80;99.90
38380;DHT22;38377;47.418;18.882;2022-07-23T04:40:41;22.90;99.90
38380;DHT22;38377;47.418;18.882;2022-07-23T04:43:07;22.90;99.90
38380;DHT22;38377;47.418;18.882;2022-07-23T04:45:33;23.00;99.90
38380;DHT22;38377;47.418;18.882;2022-07-23T04:47:58;23.00;99.90
38380;DHT22;38377;47.418;18.882;2022-07-23T04:50:24;23.00;99.90
38380;DHT22;38377;47.418;18.882;2022-07-23T04:52:50;23.00;99.90
38380;DHT22;38377;47.418;18.882;2022-07-23T04:55:16;23.10;99.90
38380;DHT22;38377;47.418;18.882;2022-07-23T04:57:42;23.30;99.90
38380;DHT22;38377;47.418;18.882;2022-07-23T05:00:09;23.50;99.90
38380;DHT22;38377;47.418;18.882;2022-07-23T05:02:34;24.10;99.50
38380;DHT22;38377;47.418;18.882;2022-07-23T05:05:00;24.90;98.00
38380;DHT22;38377;47.418;18.882;2022-07-23T05:07:26;25.80;95.30
38380;DHT22;38377;47.418;18.882;2022-07-23T05:09:52;26.40;92.50
38380;DHT22;38377;47.418;18.882;2022-07-23T05:12:17;26.70;90.90
38380;DHT22;38377;47.418;18.882;2022-07-23T05:14:43;26.80;90.30
38380;DHT22;38377;47.418;18.882;2022-07-23T05:17:09;26.80;89.70
38380;DHT22;38377;47.418;18.882;2022-07-23T05:19:35;26.70;89.60
38380;DHT22;38377;47.418;18.882;2022-07-23T05:22:01;26.70;89.60
38380;DHT22;38377;47.418;18.882;2022-07-23T05:24:26;26.80;88.90
38380;DHT22;38377;47.418;18.882;2022-07-23T05:26:52;27.20;86.90
38380;DHT22;38377;47.418;18.882;2022-07-23T05:29:18;27.70;85.40
38380;DHT22;38377;47.418;18.882;2022-07-23T05:31:44;28.20;82.60
38380;DHT22;38377;47.418;18.882;2022-07-23T05:34:09;29.10;78.80
38380;DHT22;38377;47.418;18.882;2022-07-23T05:36:36;29.10;85.70
38380;DHT22;38377;47.418;18.882;2022-07-23T05:39:03;29.70;82.10
38380;DHT22;38377;47.418;18.882;2022-07-23T05:41:29;30.60;77.50
38380;DHT22;38377;47.418;18.882;2022-07-23T05:43:54;31.30;74.20
38380;DHT22;38377;47.418;18.882;2022-07-23T05:46:20;30.80;73.70
38380;DHT22;38377;47.418;18.882;2022-07-23T05:48:46;31.30;70.00
38380;DHT22;38377;47.418;18.882;2022-07-23T05:51:19;31.50;68.70
38380;DHT22;38377;47.418;18.882;2022-07-23T05:53:45;31.60;69.20
38380;DHT22;38377;47.418;18.882;2022-07-23T05:56:11;31.70;68.00
38380;DHT22;38377;47.418;18.882;2022-07-23T05:58:36;30.90;68.70
38380;DHT22;38377;47.418;18.882;2022-07-23T06:01:02;30.30;69.10
38380;DHT22;38377;47.418;18.882;2022-07-23T06:03:28;30.20;68.50
38380;DHT22;38377;47.418;18.882;2022-07-23T06:05:54;30.20;68.30
38380;DHT22;38377;47.418;18.882;2022-07-23T06:08:19;29.70;67.00
38380;DHT22;38377;47.418;18.882;2022-07-23T06:10:45;29.60;67.80
38380;DHT22;38377;47.418;18.882;2022-07-23T06:13:11;29.80;68.30
38380;DHT22;38377;47.418;18.882;2022-07-23T06:15:36;29.80;68.40
38380;DHT22;38377;47.418;18.882;2022-07-23T06:18:02;29.50;70.40
38380;DHT22;38377;47.418;18.882;2022-07-23T06:20:28;29.30;72.60
38380;DHT22;38377;47.418;18.882;2022-07-23T06:22:54;29.20;72.10
38380;DHT22;38377;47.418;18.882;2022-07-23T06:25:19;29.30;71.80
38380;DHT22;38377;47.418;18.882;2022-07-23T06:27:46;29.40;70.80
38380;DHT22;38377;47.418;18.882;2022-07-23T06:30:13;29.50;69.40
38380;DHT22;38377;47.418;18.882;2022-07-23T06:32:41;29.60;69.50
38380;DHT22;38377;47.418;18.882;2022-07-23T06:35:07;29.60;67.80
38380;DHT22;38377;47.418;18.882;2022-07-23T06:37:33;29.70;68.20
38380;DHT22;38377;47.418;18.882;2022-07-23T06:39:59;29.80;68.10
38380;DHT22;38377;47.418;18.882;2022-07-23T06:42:24;30.00;66.50
38380;DHT22;38377;47.418;18.882;2022-07-23T06:44:50;30.10;65.00
38380;DHT22;38377;47.418;18.882;2022-07-23T06:47:15;30.20;63.10
38380;DHT22;38377;47.418;18.882;2022-07-23T06:49:41;30.30;65.00
38380;DHT22;38377;47.418;18.882;2022-07-23T06:52:07;30.40;64.50
38380;DHT22;38377;47.418;18.882;2022-07-23T06:54:34;30.50;63.30
38380;DHT22;38377;47.418;18.882;2022-07-23T06:56:59;30.60;64.20
38380;DHT22;38377;47.418;18.882;2022-07-23T06:59:25;30.80;62.80
38380;DHT22;38377;47.418;18.882;2022-07-23T07:01:51;30.80;62.60
38380;DHT22;38377;47.418;18.882;2022-07-23T07:04:17;30.70;64.00
38380;DHT22;38377;47.418;18.882;2022-07-23T07:06:42;30.80;62.80
38380;DHT22;38377;47.418;18.882;2022-07-23T07:09:08;31.00;63.30
38380;DHT22;38377;47.418;18.882;2022-07-23T07:11:34;31.30;64.70
38380;DHT22;38377;47.418;18.882;2022-07-23T07:14:00;31.60;64.30
38380;DHT22;38377;47.418;18.882;2022-07-23T07:16:26;31.80;62.00
38380;DHT22;38377;47.418;18.882;2022-07-23T07:18:52;32.00;61.00
38380;DHT22;38377;47.418;18.882;2022-07-23T07:21:18;32.00;61.00
38380;DHT22;38377;47.418;18.882;2022-07-23T07:23:43;32.20;61.60
38380;DHT22;38377;47.418;18.882;2022-07-23T07:26:09;32.10;60.30
38380;DHT22;38377;47.418;18.882;2022-07-23T07:28:35;32.20;61.00
38380;DHT22;38377;47.418;18.882;2022-07-23T07:31:01;32.40;61.90
38380;DHT22;38377;47.418;18.882;2022-07-23T07:33:26;32.80;60.30
38380;DHT22;38377;47.418;18.882;2022-07-23T07:35:52;32.80;60.90
38380;DHT22;38377;47.418;18.882;2022-07-23T07:38:18;32.90;59.90
38380;DHT22;38377;47.418;18.882;2022-07-23T07:40:44;33.00;59.20
38380;DHT22;38377;47.418;18.882;2022-07-23T07:43:10;32.70;59.80
38380;DHT22;38377;47.418;18.882;2022-07-23T07:45:35;33.10;59.80
38380;DHT22;38377;47.418;18.882;2022-07-23T07:48:01;33.80;59.00
38380;DHT22;38377;47.418;18.882;2022-07-23T07:50:27;33.90;59.00
38380;DHT22;38377;47.418;18.882;2022-07-23T07:52:53;34.20;57.40
38380;DHT22;38377;47.418;18.882;2022-07-23T07:55:19;33.70;57.00
38380;DHT22;38377;47.418;18.882;2022-07-23T07:57:45;34.20;56.80
38380;DHT22;38377;47.418;18.882;2022-07-23T08:00:11;34.40;56.90
38380;DHT22;38377;47.418;18.882;2022-07-23T08:02:47;33.60;56.00
38380;DHT22;38377;47.418;18.882;2022-07-23T08:05:13;33.80;55.20
38380;DHT22;38377;47.418;18.882;2022-07-23T08:07:40;34.20;55.50
38380;DHT22;38377;47.418;18.882;2022-07-23T08:10:08;33.80;55.90
38380;DHT22;38377;47.418;18.882;2022-07-23T08:12:54;34.40;56.60
38380;DHT22;38377;47.418;18.882;2022-07-23T08:15:22;34.70;53.60
38380;DHT22;38377;47.418;18.882;2022-07-23T08:17:49;35.00;54.50
38380;DHT22;38377;47.418;18.882;2022-07-23T08:20:16;34.40;53.10
38380;DHT22;38377;47.418;18.882;2022-07-23T08:22:59;34.60;53.80
38380;DHT22;38377;47.418;18.882;2022-07-23T08:25:27;35.10;54.40
38380;DHT22;38377;47.418;18.882;2022-07-23T08:27:54;34.50;53.50
38380;DHT22;38377;47.418;18.882;2022-07-23T08:30:21;34.50;52.90
38380;DHT22;38377;47.418;18.882;2022-07-23T08:35:34;35.50;53.00
38380;DHT22;38377;47.418;18.882;2022-07-23T08:38:02;35.10;52.30
38380;DHT22;38377;47.418;18.882;2022-07-23T08:40:33;35.10;52.70
38380;DHT22;38377;47.418;18.882;2022-07-23T08:43:07;34.80;52.10
38380;DHT22;38377;47.418;18.882;2022-07-23T08:45:37;35.40;52.40
38380;DHT22;38377;47.418;18.882;2022-07-23T08:48:06;35.30;51.50
38380;DHT22;38377;47.418;18.882;2022-07-23T08:50:33;34.60;52.40
38380;DHT22;38377;47.418;18.882;2022-07-23T08:53:00;34.40;53.40
38380;DHT22;38377;47.418;18.882;2022-07-23T08:55:26;34.90;52.60
38380;DHT22;38377;47.418;18.882;2022-07-23T08:57:53;34.80;52.50
38380;DHT22;38377;47.418;18.882;2022-07-23T09:00:20;34.80;51.20
38380;DHT22;38377;47.418;18.882;2022-07-23T09:02:46;34.60;51.40
38380;DHT22;38377;47.418;18.882;2022-07-23T09:05:13;35.30;52.50
38380;DHT22;38377;47.418;18.882;2022-07-23T09:10:30;36.60;50.40
38380;DHT22;38377;47.418;18.882;2022-07-23T09:13:00;36.60;50.60
38380;DHT22;38377;47.418;18.882;2022-07-23T09:15:25;36.70;50.80
38380;DHT22;38377;47.418;18.882;2022-07-23T09:17:51;35.80;50.20
38380;DHT22;38377;47.418;18.882;2022-07-23T09:20:17;36.00;50.30
38380;DHT22;38377;47.418;18.882;2022-07-23T09:22:47;36.40;50.50
38380;DHT22;38377;47.418;18.882;2022-07-23T09:25:18;36.70;50.10
38380;DHT22;38377;47.418;18.882;2022-07-23T09:27:55;36.80;49.30
38380;DHT22;38377;47.418;18.882;2022-07-23T09:30:24;36.40;50.10
38380;DHT22;38377;47.418;18.882;2022-07-23T09:35:51;35.60;51.40
38380;DHT22;38377;47.418;18.882;2022-07-23T09:38:19;36.60;49.70
38380;DHT22;38377;47.418;18.882;2022-07-23T09:40:46;36.90;50.40
38380;DHT22;38377;47.418;18.882;2022-07-23T09:43:13;36.90;48.40
38380;DHT22;38377;47.418;18.882;2022-07-23T09:45:50;37.20;48.20
38380;DHT22;38377;47.418;18.882;2022-07-23T09:48:17;37.10;49.00
38380;DHT22;38377;47.418;18.882;2022-07-23T09:50:43;36.40;49.60
38380;DHT22;38377;47.418;18.882;2022-07-23T09:53:10;36.00;49.60
38380;DHT22;38377;47.418;18.882;2022-07-23T09:55:37;35.90;49.70
38380;DHT22;38377;47.418;18.882;2022-07-23T09:58:05;36.70;50.00
38380;DHT22;38377;47.418;18.882;2022-07-23T10:00:32;37.20;48.40
38380;DHT22;38377;47.418;18.882;2022-07-23T10:02:59;36.90;48.40
38380;DHT22;38377;47.418;18.882;2022-07-23T10:05:25;37.00;48.20
38380;DHT22;38377;47.418;18.882;2022-07-23T10:07:51;37.60;47.10
38380;DHT22;38377;47.418;18.882;2022-07-23T10:10:17;37.40;48.40
38380;DHT22;38377;47.418;18.882;2022-07-23T10:12:44;37.70;47.00
38380;DHT22;38377;47.418;18.882;2022-07-23T10:15:25;37.80;46.60
38380;DHT22;38377;47.418;18.882;2022-07-23T10:17:51;37.40;46.00
38380;DHT22;38377;47.418;18.882;2022-07-23T10:20:17;37.70;46.80
38380;DHT22;38377;47.418;18.882;2022-07-23T10:22:48;37.90;46.20
38380;DHT22;38377;47.418;18.882;2022-07-23T10:25:30;37.80;44.70
38380;DHT22;38377;47.418;18.882;2022-07-23T10:28:11;37.50;45.80
38380;DHT22;38377;47.418;18.882;2022-07-23T10:30:57;38.00;45.90
38380;DHT22;38377;47.418;18.882;2022-07-23T10:33:43;38.20;44.60
38380;DHT22;38377;47.418;18.882;2022-07-23T10:36:32;37.70;45.40
38380;DHT22;38377;47.418;18.882;2022-07-23T10:39:11;37.70;46.00
38380;DHT22;38377;47.418;18.882;2022-07-23T10:41:40;37.50;45.80
38380;DHT22;38377;47.418;18.882;2022-07-23T10:44:11;37.90;45.20
38380;DHT22;38377;47.418;18.882;2022-07-23T10:47:00;38.20;44.90
38380;DHT22;38377;47.418;18.882;2022-07-23T10:49:31;38.00;44.90
38380;DHT22;38377;47.418;18.882;2022-07-23T10:54:44;37.20;43.40
38380;DHT22;38377;47.418;18.882;2022-07-23T10:57:11;37.40;44.20
38380;DHT22;38377;47.418;18.882;2022-07-23T11:02:39;37.60;43.90
38380;DHT22;38377;47.418;18.882;2022-07-23T11:05:07;36.90;44.60
38380;DHT22;38377;47.418;18.882;2022-07-23T11:07:34;37.20;43.90
38380;DHT22;38377;47.418;18.882;2022-07-23T11:10:00;37.30;44.20
38380;DHT22;38377;47.418;18.882;2022-07-23T11:15:14;37.90;46.00
38380;DHT22;38377;47.418;18.882;2022-07-23T11:20:29;37.00;44.10
38380;DHT22;38377;47.418;18.882;2022-07-23T11:22:57;37.60;45.80
38380;DHT22;38377;47.418;18.882;2022-07-23T11:27:53;38.00;44.90
38380;DHT22;38377;47.418;18.882;2022-07-23T11:35:43;37.80;44.80
38380;DHT22;38377;47.418;18.882;2022-07-23T11:38:17;37.90;43.30
38380;DHT22;38377;47.418;18.882;2022-07-23T11:40:45;37.60;44.30
38380;DHT22;38377;47.418;18.882;2022-07-23T11:43:12;37.80;45.60
38380;DHT22;38377;47.418;18.882;2022-07-23T11:45:44;38.10;44.90
38380;DHT22;38377;47.418;18.882;2022-07-23T11:48:24;38.00;44.20
38380;DHT22;38377;47.418;18.882;2022-07-23T11:50:51;38.30;44.40
38380;DHT22;38377;47.418;18.882;2022-07-23T11:53:24;38.60;42.80
38380;DHT22;38377;47.418;18.882;2022-07-23T11:55:51;38.40;43.20
38380;DHT22;38377;47.418;18.882;2022-07-23T11:58:17;38.30;43.90
38380;DHT22;38377;47.418;18.882;2022-07-23T12:00:43;38.10;43.40
38380;DHT22;38377;47.418;18.882;2022-07-23T12:03:09;37.90;43.30
38380;DHT22;38377;47.418;18.882;2022-07-23T12:05:36;37.60;43.80
38380;DHT22;38377;47.418;18.882;2022-07-23T12:08:04;36.50;43.60
38380;DHT22;38377;47.418;18.882;2022-07-23T12:10:43;36.90;44.60
38380;DHT22;38377;47.418;18.882;2022-07-23T12:13:15;36.90;43.80
38380;DHT22;38377;47.418;18.882;2022-07-23T12:15:53;36.70;44.70
38380;DHT22;38377;47.418;18.882;2022-07-23T12:18:22;36.80;44.30
38380;DHT22;38377;47.418;18.882;2022-07-23T12:20:51;36.80;44.40
38380;DHT22;38377;47.418;18.882;2022-07-23T12:23:18;37.40;45.10
38380;DHT22;38377;47.418;18.882;2022-07-23T12:25:46;37.40;43.50
38380;DHT22;38377;47.418;18.882;2022-07-23T12:28:13;36.90;43.90
38380;DHT22;38377;47.418;18.882;2022-07-23T12:30:42;36.30;45.80
38380;DHT22;38377;47.418;18.882;2022-07-23T12:33:10;36.10;47.20
38380;DHT22;38377;47.418;18.882;2022-07-23T12:35:40;35.90;46.80
38380;DHT22;38377;47.418;18.882;2022-07-23T12:38:10;35.60;47.60
38380;DHT22;38377;47.418;18.882;2022-07-23T12:40:47;36.00;47.60
38380;DHT22;38377;47.418;18.882;2022-07-23T12:43:22;36.10;46.70
38380;DHT22;38377;47.418;18.882;2022-07-23T12:45:53;36.30;48.00
38380;DHT22;38377;47.418;18.882;2022-07-23T12:48:26;36.70;46.20
38380;DHT22;38377;47.418;18.882;2022-07-23T12:53:23;37.80;44.50
38380;DHT22;38377;47.418;18.882;2022-07-23T12:55:56;38.20;43.00
38380;DHT22;38377;47.418;18.882;2022-07-23T12:58:22;38.20;43.50
38380;DHT22;38377;47.418;18.882;2022-07-23T13:01:02;38.30;42.80
38380;DHT22;38377;47.418;18.882;2022-07-23T13:03:33;38.30;42.80
38380;DHT22;38377;47.418;18.882;2022-07-23T13:06:00;38.20;43.30
38380;DHT22;38377;47.418;18.882;2022-07-23T13:08:29;38.20;43.70
38380;DHT22;38377;47.418;18.882;2022-07-23T13:10:56;38.20;42.20
38380;DHT22;38377;47.418;18.882;2022-07-23T13:13:27;38.30;41.30
38380;DHT22;38377;47.418;18.882;2022-07-23T13:15:53;38.30;42.00
38380;DHT22;38377;47.418;18.882;2022-07-23T13:18:20;38.20;41.40
38380;DHT22;38377;47.418;18.882;2022-07-23T13:20:47;38.20;42.40
38380;DHT22;38377;47.418;18.882;2022-07-23T13:23:14;38.50;40.90
38380;DHT22;38377;47.418;18.882;2022-07-23T13:25:40;38.70;42.00
38380;DHT22;38377;47.418;18.882;2022-07-23T13:28:06;38.90;41.20
38380;DHT22;38377;47.418;18.882;2022-07-23T13:30:32;38.80;41.30
38380;DHT22;38377;47.418;18.882;2022-07-23T13:32:59;38.50;41.40
38380;DHT22;38377;47.418;18.882;2022-07-23T13:35:25;37.90;42.40
38380;DHT22;38377;47.418;18.882;2022-07-23T13:37:51;38.30;41.50
38380;DHT22;38377;47.418;18.882;2022-07-23T13:40:16;38.50;41.10
38380;DHT22;38377;47.418;18.882;2022-07-23T13:42:42;38.70;41.40
38380;DHT22;38377;47.418;18.882;2022-07-23T13:45:08;38.00;40.40
38380;DHT22;38377;47.418;18.882;2022-07-23T13:47:34;38.40;40.40
38380;DHT22;38377;47.418;18.882;2022-07-23T13:50:00;38.40;40.50
38380;DHT22;38377;47.418;18.882;2022-07-23T13:52:25;38.00;40.60
38380;DHT22;38377;47.418;18.882;2022-07-23T13:54:51;38.10;40.80
38380;DHT22;38377;47.418;18.882;2022-07-23T13:57:17;38.30;40.60
38380;DHT22;38377;47.418;18.882;2022-07-23T13:59:43;37.70;40.20
38380;DHT22;38377;47.418;18.882;2022-07-23T14:02:09;38.10;40.80
38380;DHT22;38377;47.418;18.882;2022-07-23T14:04:35;38.10;40.20
38380;DHT22;38377;47.418;18.882;2022-07-23T14:07:01;38.00;39.70
38380;DHT22;38377;47.418;18.882;2022-07-23T14:09:27;38.30;39.80
38380;DHT22;38377;47.418;18.882;2022-07-23T14:11:53;37.90;39.80
38380;DHT22;38377;47.418;18.882;2022-07-23T14:14:19;37.90;40.10
38380;DHT22;38377;47.418;18.882;2022-07-23T14:16:45;38.10;39.00
38380;DHT22;38377;47.418;18.882;2022-07-23T14:19:11;37.60;40.00
38380;DHT22;38377;47.418;18.882;2022-07-23T14:21:37;37.70;39.80
38380;DHT22;38377;47.418;18.882;2022-07-23T14:24:03;37.50;39.00
38380;DHT22;38377;47.418;18.882;2022-07-23T14:26:29;37.60;40.30
38380;DHT22;38377;47.418;18.882;2022-07-23T14:28:55;37.30;39.90
38380;DHT22;38377;47.418;18.882;2022-07-23T14:31:21;37.40;41.40
38380;DHT22;38377;47.418;18.882;2022-07-23T14:33:48;37.60;41.60
38380;DHT22;38377;47.418;18.882;2022-07-23T14:36:14;37.70;40.50
38380;DHT22;38377;47.418;18.882;2022-07-23T14:38:39;37.80;41.30
38380;DHT22;38377;47.418;18.882;2022-07-23T14:41:05;37.40;41.80
38380;DHT22;38377;47.418;18.882;2022-07-23T14:43:33;36.80;42.90
38380;DHT22;38377;47.418;18.882;2022-07-23T14:45:59;36.20;41.90
38380;DHT22;38377;47.418;18.882;2022-07-23T14:48:25;36.00;42.50
38380;DHT22;38377;47.418;18.882;2022-07-23T14:50:51;35.80;42.80
38380;DHT22;38377;47.418;18.882;2022-07-23T14:53:16;35.50;42.40
38380;DHT22;38377;47.418;18.882;2022-07-23T14:55:42;35.20;42.70
38380;DHT22;38377;47.418;18.882;2022-07-23T14:58:09;35.20;43.20
38380;DHT22;38377;47.418;18.882;2022-07-23T15:00:34;35.10;43.20
38380;DHT22;38377;47.418;18.882;2022-07-23T15:03:00;35.00;43.50
38380;DHT22;38377;47.418;18.882;2022-07-23T15:05:26;35.00;43.70
38380;DHT22;38377;47.418;18.882;2022-07-23T15:07:52;34.90;44.70
38380;DHT22;38377;47.418;18.882;2022-07-23T15:10:18;34.60;45.30
38380;DHT22;38377;47.418;18.882;2022-07-23T15:12:44;34.50;45.30
38380;DHT22;38377;47.418;18.882;2022-07-23T15:15:10;34.40;44.60
38380;DHT22;38377;47.418;18.882;2022-07-23T15:17:35;34.40;45.30
38380;DHT22;38377;47.418;18.882;2022-07-23T15:20:01;34.30;45.60
38380;DHT22;38377;47.418;18.882;2022-07-23T15:22:27;34.20;45.20
38380;DHT22;38377;47.418;18.882;2022-07-23T15:24:53;34.20;45.40
38380;DHT22;38377;47.418;18.882;2022-07-23T15:27:19;33.90;50.30
38380;DHT22;38377;47.418;18.882;2022-07-23T15:29:45;32.80;54.50
38380;DHT22;38377;47.418;18.882;2022-07-23T15:32:11;31.70;57.50
38380;DHT22;38377;47.418;18.882;2022-07-23T15:34:40;31.00;59.60
38380;DHT22;38377;47.418;18.882;2022-07-23T15:37:05;30.20;61.90
38380;DHT22;38377;47.418;18.882;2022-07-23T15:39:32;29.40;64.40
38380;DHT22;38377;47.418;18.882;2022-07-23T15:42:01;28.70;65.60
38380;DHT22;38377;47.418;18.882;2022-07-23T15:44:27;28.50;66.10